createdAt,value
2018-05-18T00:00:36.381Z,11.52
2018-05-18T00:01:36.277Z,11.43
2018-05-18T00:02:36.174Z,11.40
2018-05-18T00:03:36.074Z,11.35
2018-05-18T00:04:35.979Z,11.33
2018-05-18T00:05:35.876Z,11.32
2018-05-18T00:06:35.772Z,11.32
2018-05-18T00:07:35.685Z,11.36
2018-05-18T00:08:35.579Z,11.32
2018-05-18T00:09:35.480Z,11.32
2018-05-18T00:10:35.387Z,11.30
2018-05-18T00:11:35.284Z,11.26
2018-05-18T00:12:35.178Z,11.30
2018-05-18T00:13:35.088Z,11.30
2018-05-18T00:14:34.983Z,11.22
2018-05-18T00:15:34.881Z,11.29
2018-05-18T00:16:34.778Z,11.15
2018-05-18T00:17:34.687Z,11.23
2018-05-18T00:18:34.583Z,11.14
2018-05-18T00:19:34.480Z,11.14
2018-05-18T00:20:34.389Z,11.18
2018-05-18T00:21:34.289Z,11.12
2018-05-18T00:22:34.183Z,11.12
2018-05-18T00:23:34.092Z,11.12
2018-05-18T00:24:34.065Z,11.14
2018-05-18T00:25:33.884Z,11.15
2018-05-18T00:26:33.781Z,11.04
2018-05-18T00:27:33.692Z,11.04
2018-05-18T00:28:33.588Z,11.07
2018-05-18T00:29:33.485Z,10.99
2018-05-18T00:30:33.395Z,10.96
2018-05-18T00:31:33.298Z,11.00
2018-05-18T00:32:33.186Z,10.90
2018-05-18T00:33:33.084Z,10.94
2018-05-18T00:34:32.992Z,10.96
2018-05-18T00:35:32.890Z,10.96
2018-05-18T00:36:32.786Z,10.90
2018-05-18T00:37:32.695Z,10.97
2018-05-18T00:38:32.592Z,10.87
2018-05-18T00:39:32.487Z,10.93
2018-05-18T00:40:32.386Z,10.96
2018-05-18T00:41:32.295Z,10.93
2018-05-18T00:42:32.192Z,10.86
2018-05-18T00:43:32.091Z,10.90
2018-05-18T00:44:31.997Z,10.92
2018-05-18T00:45:31.893Z,10.93
2018-05-18T00:46:31.789Z,10.87
2018-05-18T00:47:31.688Z,10.93
2018-05-18T00:48:31.596Z,10.92
2018-05-18T00:49:31.493Z,10.89
2018-05-18T00:50:31.390Z,10.90
2018-05-18T00:51:31.298Z,10.94
2018-05-18T00:52:31.196Z,10.79
2018-05-18T00:53:31.092Z,10.89
2018-05-18T00:54:30.989Z,10.92
2018-05-18T00:55:30.899Z,10.84
2018-05-18T00:56:30.795Z,10.87
2018-05-18T00:57:30.691Z,10.79
2018-05-18T00:58:30.600Z,10.74
2018-05-18T00:59:30.497Z,10.79
2018-05-18T01:00:30.393Z,10.78
2018-05-18T01:01:30.293Z,10.75
2018-05-18T01:02:30.200Z,10.76
2018-05-18T01:03:30.097Z,10.75
2018-05-18T01:04:29.993Z,10.63
2018-05-18T01:05:29.901Z,10.69
2018-05-18T01:06:29.798Z,10.74
2018-05-18T01:07:29.695Z,10.69
2018-05-18T01:08:29.842Z,10.63
2018-05-18T01:09:29.502Z,10.61
2018-05-18T01:10:29.399Z,10.64
2018-05-18T01:11:29.296Z,10.59
2018-05-18T01:12:29.193Z,10.59
2018-05-18T01:13:29.100Z,10.59
2018-05-18T01:14:28.997Z,10.56
2018-05-18T01:15:28.894Z,10.41
2018-05-18T01:16:28.792Z,10.46
2018-05-18T01:17:28.701Z,10.42
2018-05-18T01:18:28.597Z,10.40
2018-05-18T01:19:28.494Z,10.42
2018-05-18T01:20:28.402Z,10.38
2018-05-18T01:21:28.299Z,10.31
2018-05-18T01:22:28.196Z,10.42
2018-05-18T01:23:28.093Z,10.33
2018-05-18T01:24:28.003Z,10.37
2018-05-18T01:25:27.899Z,10.38
2018-05-18T01:26:27.796Z,10.34
2018-05-18T01:27:27.692Z,10.26
2018-05-18T01:28:27.854Z,10.30
2018-05-18T01:29:27.497Z,10.33
2018-05-18T01:30:27.394Z,10.23
2018-05-18T01:31:27.292Z,10.26
2018-05-18T01:32:27.200Z,10.23
2018-05-18T01:33:27.097Z,10.26
2018-05-18T01:34:26.994Z,10.17
2018-05-18T01:35:26.902Z,10.17
2018-05-18T01:36:26.799Z,10.16
2018-05-18T01:37:26.696Z,10.07
2018-05-18T01:38:26.592Z,10.15
2018-05-18T01:39:26.504Z,10.12
2018-05-18T01:40:26.399Z,10.04
2018-05-18T01:41:26.296Z,10.13
2018-05-18T01:42:26.192Z,10.09
2018-05-18T01:43:26.101Z,10.09
2018-05-18T01:44:25.998Z,10.09
2018-05-18T01:45:25.894Z,10.07
2018-05-18T01:46:25.792Z,10.05
2018-05-18T01:47:25.701Z,10.09
2018-05-18T01:48:25.597Z,10.09
2018-05-18T01:49:25.494Z,10.10
2018-05-18T01:50:25.391Z,10.02
2018-05-18T01:51:25.299Z,10.02
2018-05-18T01:52:25.196Z,10.04
2018-05-18T01:53:25.093Z,10.01
2018-05-18T01:54:24.989Z,10.04
2018-05-18T01:55:24.899Z,10.01
2018-05-18T01:56:24.800Z,9.98
2018-05-18T01:57:24.692Z,9.98
2018-05-18T01:58:24.889Z,9.94
2018-05-18T01:59:24.497Z,9.94
2018-05-18T02:00:24.394Z,9.95
2018-05-18T02:01:24.291Z,9.86
2018-05-18T02:02:24.188Z,9.89
2018-05-18T02:03:24.098Z,9.86
2018-05-18T02:04:23.995Z,9.92
2018-05-18T02:05:23.892Z,9.82
2018-05-18T02:06:23.790Z,9.87
2018-05-18T02:07:23.698Z,9.80
2018-05-18T02:08:23.593Z,9.87
2018-05-18T02:09:23.490Z,9.73
2018-05-18T02:10:23.386Z,9.80
2018-05-18T02:11:23.297Z,9.79
2018-05-18T02:12:23.196Z,9.80
2018-05-18T02:13:23.089Z,9.80
2018-05-18T02:14:22.986Z,9.83
2018-05-18T02:15:22.895Z,9.80
2018-05-18T02:16:22.793Z,9.80
2018-05-18T02:17:22.688Z,9.79
2018-05-18T02:18:22.834Z,9.82
2018-05-18T02:19:22.482Z,9.77
2018-05-18T02:20:22.397Z,9.83
2018-05-18T02:21:22.287Z,9.79
2018-05-18T02:22:22.185Z,9.80
2018-05-18T02:23:22.082Z,9.76
2018-05-18T02:24:21.990Z,9.82
2018-05-18T02:25:21.887Z,9.69
2018-05-18T02:26:21.783Z,9.76
2018-05-18T02:27:21.680Z,9.72
2018-05-18T02:28:21.590Z,9.68
2018-05-18T02:29:21.487Z,9.80
2018-05-18T02:30:21.384Z,9.79
2018-05-18T02:31:21.282Z,9.82
2018-05-18T02:32:21.189Z,9.83
2018-05-18T02:33:21.086Z,9.80
2018-05-18T02:34:20.982Z,9.77
2018-05-18T02:35:20.879Z,9.79
2018-05-18T02:36:20.781Z,9.84
2018-05-18T02:37:20.685Z,9.80
2018-05-18T02:38:20.585Z,9.89
2018-05-18T02:39:20.479Z,9.91
2018-05-18T02:40:20.376Z,9.83
2018-05-18T02:41:20.284Z,9.92
2018-05-18T02:42:20.181Z,9.80
2018-05-18T02:43:20.084Z,9.77
2018-05-18T02:44:19.986Z,9.86
2018-05-18T02:45:19.872Z,9.79
2018-05-18T02:46:19.781Z,9.80
2018-05-18T02:47:19.677Z,9.84
2018-05-18T02:48:19.573Z,9.77
2018-05-18T02:49:19.475Z,9.79
2018-05-18T02:50:19.393Z,9.80
2018-05-18T02:51:19.356Z,9.79
2018-05-18T02:52:19.220Z,9.76
2018-05-18T02:53:19.069Z,9.72
2018-05-18T02:54:18.967Z,9.65
2018-05-18T02:55:18.876Z,9.72
2018-05-18T02:56:18.776Z,9.66
2018-05-18T02:57:18.668Z,9.66
2018-05-18T02:58:18.865Z,9.66
2018-05-18T02:59:18.474Z,9.65
2018-05-18T03:00:18.371Z,9.66
2018-05-18T03:01:18.271Z,9.62
2018-05-18T03:02:18.164Z,9.72
2018-05-18T03:03:18.061Z,9.66
2018-05-18T03:04:17.975Z,9.64
2018-05-18T03:05:17.873Z,9.62
2018-05-18T03:06:17.764Z,9.59
2018-05-18T03:07:17.661Z,9.64
2018-05-18T03:08:17.569Z,9.72
2018-05-18T03:09:17.466Z,9.64
2018-05-18T03:10:17.362Z,9.61
2018-05-18T03:11:17.260Z,9.64
2018-05-18T03:12:17.157Z,9.64
2018-05-18T03:13:17.069Z,9.62
2018-05-18T03:14:16.965Z,9.69
2018-05-18T03:15:16.859Z,9.66
2018-05-18T03:16:16.755Z,9.65
2018-05-18T03:17:16.664Z,9.72
2018-05-18T03:18:16.561Z,9.74
2018-05-18T03:19:16.458Z,9.69
2018-05-18T03:20:16.354Z,9.73
2018-05-18T03:21:16.251Z,9.79
2018-05-18T03:22:16.203Z,9.64
2018-05-18T03:23:16.058Z,9.69
2018-05-18T03:24:15.955Z,9.69
2018-05-18T03:25:15.851Z,9.69
2018-05-18T03:26:15.748Z,9.68
2018-05-18T03:27:15.656Z,9.66
2018-05-18T03:28:15.553Z,9.64
2018-05-18T03:29:15.449Z,9.68
2018-05-18T03:30:15.348Z,9.80
2018-05-18T03:31:15.256Z,9.76
2018-05-18T03:32:15.153Z,9.84
2018-05-18T03:33:15.049Z,9.77
2018-05-18T03:34:14.945Z,9.84
2018-05-18T03:35:14.846Z,9.86
2018-05-18T03:36:14.751Z,9.91
2018-05-18T03:37:14.648Z,9.94
2018-05-18T03:38:14.844Z,9.91
2018-05-18T03:39:14.441Z,9.89
2018-05-18T03:40:14.351Z,9.94
2018-05-18T03:41:14.253Z,10.01
2018-05-18T03:42:14.145Z,10.02
2018-05-18T03:43:14.042Z,10.04
2018-05-18T03:44:13.950Z,10.04
2018-05-18T03:45:13.847Z,10.07
2018-05-18T03:46:13.743Z,10.07
2018-05-18T03:47:13.639Z,10.04
2018-05-18T03:48:13.538Z,10.12
2018-05-18T03:49:13.446Z,10.17
2018-05-18T03:50:13.346Z,10.17
2018-05-18T03:51:13.240Z,10.15
2018-05-18T03:52:13.136Z,10.15
2018-05-18T03:53:13.045Z,10.16
2018-05-18T03:54:12.942Z,10.25
2018-05-18T03:55:12.838Z,10.22
2018-05-18T03:56:12.736Z,10.28
2018-05-18T03:57:12.645Z,10.30
2018-05-18T03:58:12.542Z,10.28
2018-05-18T03:59:12.438Z,10.22
2018-05-18T04:00:12.334Z,10.26
2018-05-18T04:01:12.243Z,10.17
2018-05-18T04:02:12.140Z,10.28
2018-05-18T04:03:12.037Z,10.34
2018-05-18T04:04:11.935Z,10.34
2018-05-18T04:05:11.843Z,10.30
2018-05-18T04:06:11.740Z,10.26
2018-05-18T04:07:11.637Z,10.31
2018-05-18T04:10:54.014Z,10.41
2018-05-18T04:10:55.025Z,10.40
2018-05-18T04:11:54.922Z,10.48
2018-05-18T04:12:54.831Z,10.40
2018-05-18T04:13:54.726Z,10.59
2018-05-18T04:14:54.622Z,10.57
2018-05-18T04:15:54.519Z,10.63
2018-05-18T04:16:54.434Z,10.68
2018-05-18T04:17:54.326Z,10.76
2018-05-18T04:18:54.224Z,10.74
2018-05-18T04:19:54.185Z,10.78
2018-05-18T04:20:54.028Z,10.78
2018-05-18T04:21:53.988Z,10.87
2018-05-18T04:22:53.833Z,10.93
2018-05-18T04:23:53.732Z,10.94
2018-05-18T04:24:53.627Z,11.02
2018-05-18T04:25:53.525Z,11.10
2018-05-18T04:26:53.461Z,11.12
2018-05-18T04:27:53.330Z,11.23
2018-05-18T04:28:53.228Z,11.29
2018-05-18T04:29:53.123Z,11.25
2018-05-18T04:30:53.034Z,11.27
2018-05-18T04:31:52.930Z,11.26
2018-05-18T04:32:52.826Z,11.32
2018-05-18T04:33:52.735Z,11.32
2018-05-18T04:34:52.632Z,11.35
2018-05-18T04:35:52.528Z,11.50
2018-05-18T04:36:52.427Z,11.48
2018-05-18T04:37:52.335Z,11.59
2018-05-18T04:38:52.232Z,11.72
2018-05-18T04:39:52.129Z,11.77
2018-05-18T04:40:52.038Z,11.68
2018-05-18T04:41:51.934Z,11.78
2018-05-18T04:42:51.832Z,11.97
2018-05-18T04:43:51.741Z,12.04
2018-05-18T04:44:51.641Z,12.09
2018-05-18T04:45:51.535Z,12.09
2018-05-18T04:46:51.443Z,12.12
2018-05-18T04:47:51.352Z,12.09
2018-05-18T04:48:51.238Z,12.10
2018-05-18T04:49:51.150Z,12.09
2018-05-18T04:50:51.132Z,12.18
2018-05-18T04:51:50.951Z,12.20
2018-05-18T04:52:50.848Z,12.21
2018-05-18T04:53:50.746Z,12.21
2018-05-18T04:54:50.655Z,12.20
2018-05-18T04:55:50.550Z,12.22
2018-05-18T04:56:50.448Z,12.18
2018-05-18T04:57:50.355Z,12.25
2018-05-18T04:58:50.321Z,12.28
2018-05-18T04:59:50.154Z,12.39
2018-05-18T05:00:50.059Z,12.43
2018-05-18T05:01:49.956Z,12.54
2018-05-18T05:02:49.865Z,12.55
2018-05-18T05:03:49.762Z,12.54
2018-05-18T05:04:49.658Z,12.57
2018-05-18T05:05:49.568Z,12.57
2018-05-18T05:06:49.464Z,12.57
2018-05-18T05:07:49.372Z,12.55
2018-05-18T05:08:49.269Z,12.64
2018-05-18T05:09:49.166Z,12.62
2018-05-18T05:10:49.080Z,12.72
2018-05-18T05:11:48.973Z,12.73
2018-05-18T05:12:48.881Z,12.73
2018-05-18T05:13:48.777Z,12.75
2018-05-18T05:14:48.675Z,12.76
2018-05-18T05:15:48.584Z,12.86
2018-05-18T05:16:48.481Z,13.03
2018-05-18T05:17:48.407Z,12.95
2018-05-18T05:18:48.286Z,12.80
2018-05-18T05:19:48.186Z,12.83
2018-05-18T05:20:48.093Z,12.87
2018-05-18T05:21:47.989Z,12.87
2018-05-18T05:22:47.905Z,12.91
2018-05-18T05:23:47.824Z,13.01
2018-05-18T05:24:47.705Z,13.15
2018-05-18T05:25:47.602Z,13.19
2018-05-18T05:26:47.509Z,13.28
2018-05-18T05:27:47.407Z,13.20
2018-05-18T05:28:47.304Z,13.25
2018-05-18T05:29:47.214Z,13.28
2018-05-18T05:30:47.109Z,13.28
2018-05-18T05:31:47.017Z,13.41
2018-05-18T05:32:46.915Z,13.53
2018-05-18T05:33:46.825Z,13.46
2018-05-18T05:34:46.723Z,13.60
2018-05-18T05:35:46.629Z,13.62
2018-05-18T05:36:46.544Z,13.49
2018-05-18T05:37:46.437Z,13.49
2018-05-18T05:38:46.333Z,13.46
2018-05-18T05:39:46.241Z,13.52
2018-05-18T05:40:46.138Z,13.56
2018-05-18T05:41:46.048Z,13.57
2018-05-18T05:42:46.027Z,13.57
2018-05-18T05:43:45.856Z,13.60
2018-05-18T05:44:45.750Z,13.57
2018-05-18T05:45:45.662Z,13.47
2018-05-18T05:46:45.562Z,13.53
2018-05-18T05:47:45.465Z,13.49
2018-05-18T05:48:45.363Z,13.54
2018-05-18T05:49:45.271Z,13.47
2018-05-18T05:50:45.169Z,13.62
2018-05-18T05:51:45.077Z,13.47
2018-05-18T05:52:45.039Z,13.54
2018-05-18T05:53:44.883Z,13.54
2018-05-18T05:54:44.785Z,13.49
2018-05-18T05:55:44.688Z,13.52
2018-05-18T05:56:44.586Z,13.47
2018-05-18T05:57:44.495Z,13.42
2018-05-18T05:58:44.392Z,13.44
2018-05-18T05:59:44.300Z,13.50
2018-05-18T06:00:44.197Z,13.52
2018-05-18T06:01:44.107Z,13.54
2018-05-18T06:02:44.004Z,13.42
2018-05-18T06:03:43.912Z,13.47
2018-05-18T06:04:43.809Z,13.47
2018-05-18T06:05:43.720Z,13.53
2018-05-18T06:06:43.616Z,13.54
2018-05-18T06:07:43.523Z,13.56
2018-05-18T06:08:43.421Z,13.57
2018-05-18T06:09:43.330Z,13.59
2018-05-18T06:10:43.227Z,13.49
2018-05-18T06:11:43.136Z,13.54
2018-05-18T06:12:43.033Z,13.59
2018-05-18T06:13:42.942Z,13.70
2018-05-18T06:14:42.840Z,13.52
2018-05-18T06:15:42.746Z,13.59
2018-05-18T06:16:42.645Z,13.62
2018-05-18T06:17:42.554Z,13.62
2018-05-18T06:18:42.451Z,13.68
2018-05-18T06:19:42.372Z,13.71
2018-05-18T06:20:42.255Z,13.71
2018-05-18T06:21:42.166Z,13.63
2018-05-18T06:22:42.063Z,13.53
2018-05-18T06:23:41.971Z,13.56
2018-05-18T06:24:41.867Z,13.42
2018-05-18T06:25:41.777Z,13.54
2018-05-18T06:26:41.674Z,13.62
2018-05-18T06:27:41.582Z,13.57
2018-05-18T06:28:41.527Z,13.57
2018-05-18T06:29:41.389Z,13.63
2018-05-18T06:30:41.287Z,13.57
2018-05-18T06:31:41.194Z,13.78
2018-05-18T06:32:41.092Z,13.83
2018-05-18T06:33:41.001Z,14.03
2018-05-18T06:34:40.965Z,14.10
2018-05-18T06:35:40.813Z,14.05
2018-05-18T06:36:40.717Z,14.11
2018-05-18T06:37:40.617Z,14.05
2018-05-18T06:38:40.521Z,14.11
2018-05-18T06:39:40.419Z,14.10
2018-05-18T06:40:40.327Z,14.07
2018-05-18T06:41:40.224Z,14.11
2018-05-18T06:42:40.133Z,14.15
2018-05-18T06:43:40.029Z,14.22
2018-05-18T06:44:39.939Z,14.40
2018-05-18T06:45:39.836Z,14.35
2018-05-18T06:46:39.743Z,14.28
2018-05-18T06:47:39.642Z,14.32
2018-05-18T06:48:39.552Z,14.40
2018-05-18T06:49:39.458Z,14.44
2018-05-18T06:50:39.357Z,14.62
2018-05-18T06:51:39.265Z,14.55
2018-05-18T06:52:39.207Z,14.60
2018-05-18T06:53:39.069Z,14.54
2018-05-18T06:54:38.966Z,14.58
2018-05-18T06:55:38.876Z,14.54
2018-05-18T06:56:38.784Z,14.55
2018-05-18T06:57:38.680Z,14.58
2018-05-18T06:58:38.627Z,14.40
2018-05-18T06:59:38.487Z,14.48
2018-05-18T07:00:38.396Z,14.37
2018-05-18T07:01:38.294Z,14.41
2018-05-18T07:02:38.203Z,14.43
2018-05-18T07:03:38.126Z,14.45
2018-05-18T07:04:38.011Z,14.58
2018-05-18T07:05:37.917Z,14.51
2018-05-18T07:06:37.815Z,14.55
2018-05-18T07:07:37.723Z,14.59
2018-05-18T07:08:37.632Z,14.63
2018-05-18T07:09:37.529Z,14.58
2018-05-18T07:10:37.472Z,14.72
2018-05-18T07:11:37.334Z,14.77
2018-05-18T07:12:37.247Z,14.84
2018-05-18T07:13:37.153Z,14.78
2018-05-18T07:14:37.050Z,14.73
2018-05-18T07:15:36.959Z,14.72
2018-05-18T07:16:36.895Z,14.70
2018-05-18T07:17:36.765Z,14.82
2018-05-18T07:18:36.663Z,14.78
2018-05-18T07:19:36.571Z,14.91
2018-05-18T07:20:36.481Z,14.86
2018-05-18T07:21:36.377Z,14.82
2018-05-18T07:22:36.312Z,14.86
2018-05-18T07:23:36.195Z,14.89
2018-05-18T07:24:36.095Z,15.06
2018-05-18T07:25:36.001Z,15.28
2018-05-18T07:26:35.899Z,15.49
2018-05-18T07:27:35.806Z,15.67
2018-05-18T07:28:35.716Z,15.83
2018-05-18T07:29:35.614Z,15.55
2018-05-18T07:30:35.521Z,15.70
2018-05-18T07:31:35.433Z,15.65
2018-05-18T07:32:35.329Z,15.55
2018-05-18T07:33:35.249Z,15.59
2018-05-18T07:34:35.152Z,15.70
2018-05-18T07:35:35.043Z,15.70
2018-05-18T07:36:34.952Z,15.80
2018-05-18T07:37:34.861Z,15.80
2018-05-18T07:38:34.759Z,15.95
2018-05-18T07:39:34.667Z,15.95
2018-05-18T07:40:34.577Z,16.05
2018-05-18T07:41:34.476Z,16.17
2018-05-18T07:42:34.382Z,16.01
2018-05-18T07:43:34.292Z,16.10
2018-05-18T07:44:34.200Z,16.17
2018-05-18T07:45:34.098Z,16.05
2018-05-18T07:46:34.007Z,16.01
2018-05-18T07:47:33.916Z,16.16
2018-05-18T07:48:33.812Z,16.36
2018-05-18T07:49:33.722Z,16.53
2018-05-18T07:50:33.632Z,16.43
2018-05-18T07:51:33.542Z,16.53
2018-05-18T07:52:33.438Z,16.76
2018-05-18T07:53:33.380Z,16.74
2018-05-18T07:54:33.257Z,16.78
2018-05-18T07:55:33.165Z,16.74
2018-05-18T07:56:33.061Z,16.69
2018-05-18T07:57:32.971Z,16.58
2018-05-18T07:58:32.880Z,16.57
2018-05-18T07:59:32.867Z,16.72
2018-05-18T08:00:32.687Z,16.68
2018-05-18T08:01:32.609Z,16.72
2018-05-18T08:02:32.505Z,16.66
2018-05-18T08:03:32.414Z,17.46
2018-05-18T08:04:32.324Z,17.46
2018-05-18T08:05:32.220Z,17.92
2018-05-18T08:06:32.130Z,18.04
2018-05-18T08:07:32.043Z,17.67
2018-05-18T08:08:31.947Z,16.89
2018-05-18T08:09:31.864Z,16.91
2018-05-18T08:10:31.757Z,17.14
2018-05-18T08:11:31.662Z,17.15
2018-05-18T08:12:31.572Z,17.24
2018-05-18T08:13:31.480Z,17.33
2018-05-18T08:14:31.391Z,17.42
2018-05-18T08:15:31.299Z,17.23
2018-05-18T08:16:31.197Z,16.97
2018-05-18T08:17:31.106Z,17.11
2018-05-18T08:18:31.014Z,17.16
2018-05-18T08:19:30.924Z,17.67
2018-05-18T08:20:30.833Z,17.97
2018-05-18T08:21:30.774Z,18.05
2018-05-18T08:22:30.651Z,18.33
2018-05-18T08:23:30.549Z,18.62
2018-05-18T08:24:30.459Z,18.59
2018-05-18T08:25:30.366Z,18.95
2018-05-18T08:26:30.280Z,19.30
2018-05-18T08:27:30.184Z,19.48
2018-05-18T08:28:30.095Z,19.62
2018-05-18T08:29:30.003Z,19.58
2018-05-18T08:30:29.913Z,19.14
2018-05-18T08:31:29.821Z,18.88
2018-05-18T08:32:29.734Z,18.73
2018-05-18T08:33:29.640Z,18.41
2018-05-18T08:34:29.550Z,18.04
2018-05-18T08:35:29.458Z,17.46
2018-05-18T08:36:29.356Z,17.33
2018-05-18T08:37:29.276Z,17.23
2018-05-18T08:38:29.173Z,17.34
2018-05-18T08:39:29.095Z,17.30
2018-05-18T08:40:28.995Z,17.41
2018-05-18T08:41:28.902Z,17.39
2018-05-18T08:42:28.810Z,17.42
2018-05-18T08:43:28.720Z,17.38
2018-05-18T08:44:28.715Z,17.38
2018-05-18T08:45:28.539Z,17.41
2018-05-18T08:46:28.447Z,17.22
2018-05-18T08:47:28.356Z,17.22
2018-05-18T08:48:28.266Z,17.20
2018-05-18T08:49:28.176Z,17.19
2018-05-18T08:50:28.181Z,17.08
2018-05-18T08:51:27.993Z,16.68
2018-05-18T08:52:27.902Z,16.61
2018-05-18T08:53:27.801Z,16.89
2018-05-18T08:54:27.709Z,17.20
2018-05-18T08:55:27.618Z,17.22
2018-05-18T08:56:27.527Z,17.27
2018-05-18T08:57:27.435Z,17.20
2018-05-18T08:58:27.346Z,17.20
2018-05-18T08:59:27.256Z,17.44
2018-05-18T09:00:27.212Z,17.52
2018-05-18T09:01:27.072Z,17.79
2018-05-18T09:02:26.983Z,17.90
2018-05-18T09:03:26.890Z,17.46
2018-05-18T09:04:26.788Z,17.42
2018-05-18T09:05:26.697Z,17.33
2018-05-18T09:06:26.605Z,17.23
2018-05-18T09:07:26.516Z,17.33
2018-05-18T09:08:26.425Z,17.39
2018-05-18T09:09:26.334Z,17.34
2018-05-18T09:10:26.242Z,17.39
2018-05-18T09:11:26.152Z,17.08
2018-05-18T09:12:26.062Z,16.72
2018-05-18T09:13:25.959Z,16.83
2018-05-18T09:14:25.871Z,16.99
2018-05-18T09:15:25.777Z,16.94
2018-05-18T09:16:25.687Z,16.74
2018-05-18T09:17:25.595Z,16.68
2018-05-18T09:18:25.504Z,16.71
2018-05-18T09:19:25.412Z,16.94
2018-05-18T09:20:25.323Z,16.83
2018-05-18T09:21:25.219Z,16.84
2018-05-18T09:22:25.129Z,16.84
2018-05-18T09:23:25.038Z,16.72
2018-05-18T09:24:24.946Z,16.83
2018-05-18T09:25:24.859Z,16.75
2018-05-18T09:26:24.781Z,16.61
2018-05-18T09:27:24.664Z,16.58
2018-05-18T09:28:24.572Z,16.76
2018-05-18T09:29:24.480Z,16.91
2018-05-18T09:30:24.390Z,16.89
2018-05-18T09:31:24.297Z,16.91
2018-05-18T09:32:24.208Z,16.84
2018-05-18T09:33:24.116Z,16.96
2018-05-18T09:34:24.013Z,16.94
2018-05-18T09:35:23.927Z,16.71
2018-05-18T09:36:23.837Z,16.96
2018-05-18T09:37:23.742Z,16.96
2018-05-18T09:38:23.650Z,17.06
2018-05-18T09:39:23.548Z,17.09
2018-05-18T09:40:23.456Z,17.04
2018-05-18T09:41:23.365Z,17.34
2018-05-18T09:42:23.275Z,17.34
2018-05-18T09:43:23.183Z,17.52
2018-05-18T09:44:23.093Z,17.48
2018-05-18T09:45:23.004Z,17.41
2018-05-18T09:46:22.898Z,17.36
2018-05-18T09:47:22.808Z,17.19
2018-05-18T09:48:22.719Z,17.38
2018-05-18T09:49:22.627Z,17.46
2018-05-18T09:50:22.535Z,17.78
2018-05-18T09:51:22.432Z,17.79
2018-05-18T09:52:22.345Z,17.76
2018-05-18T09:53:22.251Z,17.60
2018-05-18T09:54:22.275Z,17.15
2018-05-18T09:55:22.244Z,17.27
2018-05-18T09:56:21.980Z,17.33
2018-05-18T09:57:21.876Z,17.39
2018-05-18T09:58:22.088Z,17.39
2018-05-18T09:59:21.694Z,17.42
2018-05-18T10:00:21.601Z,17.46
2018-05-18T10:01:21.511Z,17.64
2018-05-18T10:02:21.420Z,17.65
2018-05-18T10:03:21.318Z,17.80
2018-05-18T10:04:21.226Z,17.86
2018-05-18T10:05:21.136Z,17.89
2018-05-18T10:06:21.045Z,17.74
2018-05-18T10:07:20.954Z,17.48
2018-05-18T10:08:20.865Z,17.59
2018-05-18T10:09:20.771Z,17.60
2018-05-18T10:10:20.681Z,17.82
2018-05-18T10:11:20.579Z,17.63
2018-05-18T10:12:20.489Z,17.80
2018-05-18T10:13:20.396Z,17.89
2018-05-18T10:14:20.305Z,17.90
2018-05-18T10:15:20.215Z,17.94
2018-05-18T10:16:20.124Z,17.79
2018-05-18T10:17:20.034Z,17.86
2018-05-18T10:18:20.179Z,17.67
2018-05-18T10:19:19.838Z,17.56
2018-05-18T10:20:19.748Z,17.78
2018-05-18T10:21:19.656Z,17.59
2018-05-18T10:22:19.566Z,17.95
2018-05-18T10:23:19.489Z,17.97
2018-05-18T10:24:19.388Z,18.15
2018-05-18T10:25:19.294Z,18.11
2018-05-18T10:26:19.203Z,18.11
2018-05-18T10:27:19.111Z,18.28
2018-05-18T10:28:19.009Z,18.31
2018-05-18T10:29:18.920Z,18.11
2018-05-18T10:30:18.826Z,17.97
2018-05-18T10:31:18.737Z,17.97
2018-05-18T10:32:18.645Z,18.01
2018-05-18T10:33:18.555Z,18.11
2018-05-18T10:34:18.463Z,18.13
2018-05-18T10:35:18.377Z,18.29
2018-05-18T10:36:18.287Z,18.47
2018-05-18T10:37:18.191Z,18.70
2018-05-18T10:38:18.100Z,18.75
2018-05-18T10:39:17.998Z,19.39
2018-05-18T10:40:17.906Z,19.48
2018-05-18T10:41:17.829Z,19.39
2018-05-18T10:42:17.725Z,19.27
2018-05-18T10:43:17.635Z,19.37
2018-05-18T10:44:17.560Z,19.39
2018-05-18T10:45:17.507Z,19.00
2018-05-18T10:46:17.364Z,19.08
2018-05-18T10:47:17.271Z,18.90
2018-05-18T10:48:17.180Z,18.70
2018-05-18T10:49:17.093Z,18.73
2018-05-18T10:50:16.999Z,18.59
2018-05-18T10:51:16.907Z,18.78
2018-05-18T10:52:16.818Z,18.68
2018-05-18T10:53:16.727Z,18.53
2018-05-18T10:54:16.635Z,18.38
2018-05-18T10:55:16.544Z,18.08
2018-05-18T10:56:16.459Z,18.13
2018-05-18T10:57:16.363Z,17.89
2018-05-18T10:58:16.272Z,17.78
2018-05-18T10:59:16.185Z,17.85
2018-05-18T11:00:16.094Z,17.74
2018-05-18T11:01:15.999Z,17.90
2018-05-18T11:02:15.898Z,17.89
2018-05-18T11:03:15.808Z,17.97
2018-05-18T11:04:15.715Z,17.87
2018-05-18T11:05:15.686Z,17.90
2018-05-18T11:06:15.534Z,17.92
2018-05-18T11:07:15.442Z,17.97
2018-05-18T11:08:15.352Z,18.25
2018-05-18T11:09:15.261Z,18.25
2018-05-18T11:10:15.169Z,18.13
2018-05-18T11:11:15.081Z,17.94
2018-05-18T11:12:14.988Z,18.05
2018-05-18T11:13:14.898Z,18.05
2018-05-18T11:14:14.893Z,18.11
2018-05-18T11:15:14.716Z,18.07
2018-05-18T11:16:14.625Z,18.00
2018-05-18T11:17:14.535Z,17.94
2018-05-18T11:18:14.433Z,18.01
2018-05-18T11:19:14.340Z,18.11
2018-05-18T11:20:14.250Z,18.15
2018-05-18T11:21:14.158Z,18.10
2018-05-18T11:22:14.068Z,18.16
2018-05-18T11:23:13.976Z,18.26
2018-05-18T11:24:13.886Z,18.16
2018-05-18T11:25:13.800Z,18.29
2018-05-18T11:26:13.757Z,18.41
2018-05-18T11:27:13.613Z,18.45
2018-05-18T11:28:13.523Z,18.45
2018-05-18T11:29:13.434Z,18.37
2018-05-18T11:30:13.344Z,18.43
2018-05-18T11:31:13.237Z,18.45
2018-05-18T11:32:13.151Z,18.62
2018-05-18T11:33:13.068Z,18.60
2018-05-18T11:34:12.965Z,18.49
2018-05-18T11:35:12.874Z,18.49
2018-05-18T11:36:12.783Z,18.22
2018-05-18T11:37:12.693Z,17.97
2018-05-18T11:38:12.601Z,17.98
2018-05-18T11:39:12.614Z,18.11
2018-05-18T11:40:12.420Z,18.01
2018-05-18T11:41:12.330Z,17.92
2018-05-18T11:42:12.237Z,17.82
2018-05-18T11:43:12.142Z,17.46
2018-05-18T11:44:12.045Z,17.59
2018-05-18T11:45:11.955Z,17.64
2018-05-18T11:46:11.863Z,17.87
2018-05-18T11:47:11.772Z,18.04
2018-05-18T11:48:11.708Z,18.07
2018-05-18T11:49:11.590Z,18.40
2018-05-18T11:50:11.502Z,18.44
2018-05-18T11:51:11.409Z,18.45
2018-05-18T11:52:11.318Z,18.10
2018-05-18T11:53:11.227Z,18.03
2018-05-18T11:54:11.136Z,18.07
2018-05-18T11:55:11.049Z,17.94
2018-05-18T11:56:10.956Z,17.65
2018-05-18T11:57:10.863Z,17.49
2018-05-18T11:58:11.015Z,17.27
2018-05-18T11:59:10.678Z,17.44
2018-05-18T12:00:10.593Z,17.46
2018-05-18T12:01:10.489Z,17.42
2018-05-18T12:02:10.397Z,17.38
2018-05-18T12:03:10.306Z,17.46
2018-05-18T12:04:10.229Z,17.60
2018-05-18T12:05:10.125Z,17.76
2018-05-18T12:06:10.034Z,17.89
2018-05-18T12:07:09.944Z,17.89
2018-05-18T12:08:09.853Z,18.00
2018-05-18T12:09:09.750Z,18.04
2018-05-18T12:10:09.660Z,18.03
2018-05-18T12:11:09.567Z,18.11
2018-05-18T12:12:09.477Z,18.34
2018-05-18T12:13:09.385Z,18.25
2018-05-18T12:14:09.314Z,18.38
2018-05-18T12:15:09.205Z,18.40
2018-05-18T12:16:09.114Z,18.26
2018-05-18T12:17:09.023Z,18.41
2018-05-18T12:18:09.185Z,18.22
2018-05-18T12:19:08.841Z,18.20
2018-05-18T12:20:08.739Z,18.16
2018-05-18T12:21:08.658Z,18.05
2018-05-18T12:22:08.556Z,17.97
2018-05-18T12:23:08.466Z,18.13
2018-05-18T12:24:08.374Z,18.16
2018-05-18T12:25:08.285Z,18.26
2018-05-18T12:26:08.232Z,18.26
2018-05-18T12:27:08.103Z,18.28
2018-05-18T12:28:08.013Z,18.08
2018-05-18T12:29:07.926Z,18.01
2018-05-18T12:30:07.829Z,17.98
2018-05-18T12:31:07.739Z,17.92
2018-05-18T12:32:07.648Z,18.00
2018-05-18T12:33:07.546Z,17.92
2018-05-18T12:34:07.456Z,17.98
2018-05-18T12:35:07.366Z,17.87
2018-05-18T12:36:07.274Z,17.90
2018-05-18T12:37:07.182Z,17.68
2018-05-18T12:38:07.185Z,17.82
2018-05-18T12:39:07.014Z,17.64
2018-05-18T12:40:06.910Z,17.44
2018-05-18T12:41:06.820Z,17.51
2018-05-18T12:42:06.717Z,17.57
2018-05-18T12:43:06.625Z,17.63
2018-05-18T12:44:06.533Z,17.70
2018-05-18T12:45:06.444Z,17.80
2018-05-18T12:46:06.352Z,17.90
2018-05-18T12:47:06.261Z,17.41
2018-05-18T12:48:06.172Z,17.41
2018-05-18T12:49:06.081Z,17.33
2018-05-18T12:50:05.989Z,17.42
2018-05-18T12:51:05.886Z,17.48
2018-05-18T12:52:05.796Z,17.51
2018-05-18T12:53:05.703Z,17.52
2018-05-18T12:54:05.648Z,17.27
2018-05-18T12:55:05.522Z,17.19
2018-05-18T12:56:05.434Z,17.29
2018-05-18T12:57:05.344Z,17.34